.
WxDataArchive / Data Records for 2009-01-20
2009-01-19 January 2009 2009-01-21

Data Records for Tuesday, 20 January 2009

Time	Temp	Chill	HIndex	Humid	Dewpt	 Wind 	HiWind	WindDir	Rain 	Barom 
-----	----	-----	------	-----	-----	------	------	-------	-----	----- 
00:00	6.9	6.9	6.9	84	3.1	0	1	270	0.00	29.920 
00:05	7.2	7.2	7.2	84	3.4	0	1	270	0.00	29.918 
00:10	7.6	7.6	7.6	85	4.1	0	0	---	0.00	29.917 
00:15	7.7	7.7	7.7	85	4.2	0	1	270	0.00	29.915 
00:20	7.9	7.9	7.9	85	4.3	0	1	270	0.00	29.914 
00:25	7.9	7.9	7.9	84	4.1	0	0	---	0.00	29.916 
00:30	7.7	7.7	7.7	84	3.9	0	0	---	0.00	29.916 
00:35	7.6	7.6	7.6	84	3.8	0	0	---	0.00	29.917 
00:40	7.4	7.4	7.4	84	3.6	0	0	---	0.00	29.918 
00:45	7.0	7.0	7.0	84	3.2	0	0	---	0.00	29.919 
00:50	6.9	6.9	6.9	84	3.1	0	0	---	0.00	29.919 
00:55	6.5	6.5	6.5	83	2.5	0	0	---	0.00	29.919 
01:00	6.3	6.3	6.3	83	2.3	0	0	---	0.00	29.919 
01:05	6.0	6.0	6.0	83	2.0	0	0	---	0.00	29.920 
01:10	5.8	5.8	5.8	83	1.8	0	0	---	0.00	29.919 
01:15	5.4	5.4	5.4	82	1.1	0	0	---	0.00	29.920 
01:20	5.0	5.0	5.0	82	0.7	0	0	---	0.00	29.920 
01:25	4.8	4.8	4.8	82	0.5	0	0	---	0.00	29.920 
01:30	4.5	4.5	4.5	82	0.2	0	0	---	0.00	29.920 
01:35	4.1	4.1	4.1	81	-0.4	0	0	---	0.00	29.923 
01:40	3.7	3.7	3.7	81	-0.8	0	0	---	0.00	29.925 
01:45	3.5	3.5	3.5	81	-1.0	0	0	---	0.00	29.927 
01:50	3.4	3.4	3.4	81	-1.1	0	0	---	0.00	29.926 
01:55	3.4	3.4	3.4	81	-1.1	0	0	---	0.00	29.926 
02:00	3.4	3.4	3.4	81	-1.1	0	0	---	0.00	29.927 
02:05	3.5	3.5	3.5	82	-0.7	0	0	---	0.00	29.924 
02:10	3.7	3.7	3.7	82	-0.5	0	0	---	0.00	29.926 
02:15	4.5	4.5	4.5	83	0.5	0	0	---	0.00	29.929 
02:20	5.4	5.4	5.4	84	1.6	0	0	---	0.00	29.926 
02:25	6.0	6.0	6.0	84	2.2	0	0	---	0.00	29.928 
02:30	6.5	6.5	6.5	85	3.0	0	1	270	0.00	29.928 
02:35	7.0	7.0	7.0	85	3.5	0	1	270	0.00	29.929 
02:40	7.0	7.0	7.0	84	3.2	0	1	270	0.00	29.930 
02:45	7.0	7.0	7.0	84	3.2	0	1	270	0.00	29.932 
02:50	6.9	6.9	6.9	84	3.1	0	0	---	0.00	29.932 
02:55	6.7	6.7	6.7	84	2.9	0	0	---	0.00	29.933 
03:00	6.3	6.3	6.3	84	2.5	0	1	270	0.00	29.935 
03:05	6.1	6.1	6.1	83	2.1	0	1	270	0.00	29.935 
03:10	5.8	5.8	5.8	83	1.8	0	0	---	0.00	29.938 
03:15	5.4	5.4	5.4	83	1.4	0	0	---	0.00	29.937 
03:20	5.2	5.2	5.2	82	0.9	0	0	---	0.00	29.937 
03:25	4.8	4.8	4.8	82	0.5	0	0	---	0.00	29.940 
03:30	4.7	4.7	4.7	82	0.4	0	0	---	0.00	29.943 
03:35	4.5	4.5	4.5	82	0.2	0	0	---	0.00	29.944 
03:40	4.5	4.5	4.5	82	0.2	0	0	---	0.00	29.945 
03:45	4.5	4.5	4.5	82	0.2	0	0	---	0.00	29.947 
03:50	4.3	4.3	4.3	82	0.0	0	0	---	0.00	29.950 
03:55	4.3	4.3	4.3	82	0.0	0	0	---	0.00	29.951 
04:00	4.3	4.3	4.3	82	0.0	0	0	---	0.00	29.951 
04:05	4.3	4.3	4.3	81	-0.2	0	0	---	0.00	29.951 
04:10	4.1	4.1	4.1	81	-0.4	0	0	---	0.00	29.951 
04:15	3.9	3.9	3.9	81	-0.6	0	0	---	0.00	29.952 
04:20	3.9	3.9	3.9	81	-0.6	0	0	---	0.00	29.954 
04:25	3.9	3.9	3.9	81	-0.6	0	0	---	0.00	29.955 
04:30	3.9	3.9	3.9	81	-0.6	0	0	---	0.00	29.955 
04:35	3.9	3.9	3.9	81	-0.6	0	0	---	0.00	29.958 
04:40	4.1	4.1	4.1	81	-0.4	0	0	---	0.00	29.960 
04:45	3.9	3.9	3.9	81	-0.6	0	0	---	0.00	29.967 
04:50	4.1	4.1	4.1	81	-0.4	0	1	270	0.00	29.967 
04:55	4.1	4.1	4.1	81	-0.4	0	0	---	0.00	29.967 
05:00	4.1	4.1	4.1	81	-0.4	0	0	---	0.00	29.969 
05:05	3.9	3.9	3.9	81	-0.6	0	0	---	0.00	29.974 
05:10	3.7	3.7	3.7	81	-0.8	0	0	---	0.00	29.974 
05:15	3.5	3.5	3.5	81	-1.0	0	0	---	0.00	29.973 
05:20	3.5	3.5	3.5	81	-1.0	0	0	---	0.00	29.974 
05:25	3.5	3.5	3.5	81	-1.0	0	0	---	0.00	29.978 
05:30	3.4	3.4	3.4	81	-1.1	0	0	---	0.00	29.978 
05:35	3.4	3.4	3.4	81	-1.1	0	0	---	0.00	29.979 
05:40	3.4	3.4	3.4	81	-1.1	0	1	270	0.00	29.978 
05:45	3.4	3.4	3.4	81	-1.1	0	1	270	0.00	29.983 
05:50	3.4	3.4	3.4	81	-1.1	0	0	---	0.00	29.987 
05:55	3.4	3.4	3.4	81	-1.1	0	0	---	0.00	29.988 
06:00	3.2	3.2	3.2	81	-1.3	0	0	---	0.00	29.989 
06:05	3.2	3.2	3.2	81	-1.3	0	0	---	0.00	29.991 
06:10	3.2	3.2	3.2	81	-1.3	0	0	---	0.00	29.992 
06:15	3.2	3.2	3.2	81	-1.3	0	0	---	0.00	29.995 
06:20	3.0	3.0	3.0	81	-1.5	0	0	---	0.00	29.999 
06:25	3.0	3.0	3.0	81	-1.5	0	0	---	0.00	30.001 
06:30	3.0	3.0	3.0	81	-1.5	0	0	---	0.00	30.004 
06:35	3.0	3.0	3.0	81	-1.5	0	0	---	0.00	30.005 
06:40	2.8	2.8	2.8	80	-1.9	0	0	---	0.00	30.006 
06:45	2.6	2.6	2.6	80	-2.1	0	0	---	0.00	30.008 
06:50	2.6	2.6	2.6	81	-1.9	0	0	---	0.00	30.010 
06:55	2.6	2.6	2.6	80	-2.1	0	0	---	0.00	30.013 
07:00	2.6	2.6	2.6	80	-2.1	0	0	---	0.00	30.015 
07:05	2.4	2.4	2.4	80	-2.3	0	0	---	0.00	30.019 
07:10	2.4	2.4	2.4	80	-2.3	0	0	---	0.00	30.022 
07:15	2.2	2.2	2.2	80	-2.5	0	0	---	0.00	30.024 
07:20	2.2	2.2	2.2	80	-2.5	0	0	---	0.00	30.025 
07:25	2.0	2.0	2.0	80	-2.7	0	0	---	0.00	30.028 
07:30	2.0	2.0	2.0	80	-2.7	0	0	---	0.00	30.032 
07:35	1.8	1.8	1.8	80	-2.9	0	0	---	0.00	30.033 
07:40	2.0	2.0	2.0	80	-2.7	0	0	---	0.00	30.037 
07:45	2.0	2.0	2.0	80	-2.7	0	0	---	0.00	30.038 
07:50	2.2	2.2	2.2	80	-2.5	0	0	---	0.00	30.040 
07:55	2.4	2.4	2.4	81	-2.1	0	0	---	0.00	30.042 
08:00	2.6	2.6	2.6	81	-1.9	0	1	270	0.00	30.048 
08:05	2.8	2.8	2.8	81	-1.7	0	1	270	0.00	30.052 
08:10	2.8	2.8	2.8	81	-1.7	0	1	270	0.00	30.055 
08:15	3.0	3.0	3.0	81	-1.5	0	1	270	0.00	30.058 
08:20	3.0	3.0	3.0	81	-1.5	0	0	---	0.00	30.060 
08:25	3.2	3.2	3.2	81	-1.3	0	0	---	0.00	30.063 
08:30	3.4	3.4	3.4	81	-1.1	0	0	---	0.00	30.069 
08:35	3.5	3.5	3.5	81	-1.0	0	1	270	0.00	30.071 
08:40	3.7	3.7	3.7	81	-0.8	0	0	---	0.00	30.072 
08:45	3.9	3.9	3.9	81	-0.6	0	1	270	0.00	30.074 
08:50	4.1	4.1	4.1	81	-0.4	0	1	270	0.00	30.075 
08:55	4.3	4.3	4.3	81	-0.2	0	1	270	0.00	30.074 
09:00	4.5	4.5	4.5	81	-0.0	0	1	270	0.00	30.074 
09:05	4.7	4.7	4.7	81	0.2	0	1	270	0.00	30.079 
09:10	4.8	4.8	4.8	81	0.3	0	1	270	0.00	30.081 
09:15	5.2	5.2	5.2	81	0.7	0	1	270	0.00	30.087 
09:20	5.6	5.6	5.6	81	1.1	0	1	270	0.00	30.089 
09:25	5.8	5.8	5.8	81	1.3	0	2	270	0.00	30.088 
09:30	6.0	6.0	6.0	81	1.4	0	2	270	0.00	30.088 
09:35	6.1	6.1	6.1	82	1.8	0	1	270	0.00	30.088 
09:40	6.5	6.5	6.5	82	2.2	0	1	270	0.00	30.088 
09:45	6.9	6.9	6.9	82	2.6	0	3	270	0.00	30.090 
09:50	7.0	7.0	7.0	82	2.7	0	3	270	0.00	30.091 
09:55	7.2	7.2	7.2	82	2.9	0	1	292	0.00	30.092 
10:00	7.4	7.4	7.4	82	3.1	0	2	292	0.00	30.093 
10:05	7.6	7.6	7.6	82	3.3	1	3	248	0.00	30.094 
10:10	7.9	7.9	7.9	82	3.6	0	2	292	0.00	30.095 
10:15	7.9	7.9	7.9	82	3.6	0	3	0	0.00	30.101 
10:20	8.3	8.3	8.3	82	4.0	0	2	315	0.00	30.103 
10:25	8.6	8.6	8.6	82	4.3	0	2	292	0.00	30.103 
10:30	8.8	8.8	8.8	82	4.5	1	2	292	0.00	30.102 
10:35	9.0	9.0	9.0	82	4.6	0	2	338	0.00	30.102 
10:40	9.2	9.2	9.2	82	4.8	0	2	248	0.00	30.103 
10:45	9.3	9.3	9.3	82	4.9	1	3	248	0.00	30.106 
10:50	9.7	9.7	9.7	82	5.3	0	2	248	0.00	30.110 
10:55	10.0	10.0	10.0	81	5.4	0	1	315	0.00	30.115 
11:00	10.2	10.2	10.2	81	5.6	0	3	270	0.00	30.117 
11:05	10.5	10.5	10.5	80	5.6	0	2	270	0.00	30.118 
11:10	10.9	10.9	10.9	80	6.0	0	1	270	0.00	30.116 
11:15	11.1	11.1	11.1	78	5.6	0	2	0	0.00	30.116 
11:20	11.2	11.2	11.2	78	5.7	0	2	338	0.00	30.115 
11:25	11.6	11.6	11.6	77	5.8	0	2	338	0.00	30.115 
11:30	11.9	11.9	11.9	76	5.8	0	3	270	0.00	30.115 
11:35	12.3	12.3	12.3	76	6.2	0	3	0	0.00	30.113 
11:40	12.4	12.4	12.4	74	5.7	1	3	270	0.00	30.111 
11:45	12.8	12.8	12.8	73	5.8	0	1	338	0.00	30.104 
11:50	12.9	12.9	12.9	73	5.9	1	3	270	0.00	30.101 
11:55	13.5	13.5	13.5	72	6.2	1	3	270	0.00	30.100 
12:00	13.8	13.8	13.8	71	6.2	1	2	0	0.00	30.100 
12:05	14.0	14.0	14.0	70	6.0	0	2	0	0.00	30.102 
12:10	14.3	14.3	14.3	69	6.0	0	2	0	0.00	30.102 
12:15	14.4	14.4	14.4	68	5.8	1	3	248	0.00	30.100 
12:20	14.8	14.8	14.8	67	5.9	1	5	22	0.00	30.099 
12:25	14.9	14.9	14.9	66	5.6	1	3	270	0.00	30.099 
12:30	14.9	14.9	14.9	65	5.3	1	3	0	0.00	30.100 
12:35	15.1	15.1	15.1	65	5.5	1	2	315	0.00	30.101 
12:40	15.4	15.4	15.4	65	5.8	1	3	292	0.00	30.100 
12:45	15.6	15.6	15.6	63	5.3	1	3	315	0.00	30.097 
12:50	15.7	15.7	15.7	62	5.0	1	5	0	0.00	30.097 
12:55	15.7	15.7	15.7	62	5.0	1	3	0	0.00	30.097 
13:00	15.7	15.7	15.7	61	4.7	1	3	292	0.00	30.097 
13:05	15.9	15.9	15.9	61	4.9	1	4	0	0.00	30.100 
13:10	15.9	15.9	15.9	61	4.9	1	5	270	0.00	30.100 
13:15	15.9	15.9	15.9	60	4.5	1	4	0	0.00	30.099 
13:20	16.1	16.1	16.1	60	4.7	1	2	248	0.00	30.099 
13:25	16.2	16.2	16.2	61	5.1	1	3	292	0.00	30.097 
13:30	16.4	16.4	16.4	61	5.3	0	2	0	0.00	30.098 
13:35	16.5	16.5	16.5	61	5.4	1	2	338	0.00	30.097 
13:40	16.5	16.5	16.5	61	5.4	1	2	315	0.00	30.096 
13:45	16.5	16.5	16.5	60	5.1	1	2	315	0.00	30.096 
13:50	16.9	16.9	16.9	61	5.8	1	3	248	0.00	30.095 
13:55	17.0	17.0	17.0	60	5.5	1	4	270	0.00	30.096 
14:00	17.0	17.0	17.0	58	4.8	1	3	0	0.00	30.097 
14:05	17.2	17.2	17.2	58	5.0	1	3	270	0.00	30.094 
14:10	17.2	17.2	17.2	57	4.6	1	2	315	0.00	30.092 
14:15	17.2	17.2	17.2	58	5.0	1	4	0	0.00	30.092 
14:20	17.3	17.3	17.3	59	5.5	1	3	270	0.00	30.091 
14:25	17.5	17.5	17.5	58	5.3	1	3	0	0.00	30.089 
14:30	17.3	17.3	17.3	58	5.1	1	3	292	0.00	30.093 
14:35	17.5	17.5	17.5	59	5.6	1	4	270	0.00	30.092 
14:40	17.5	17.5	17.5	58	5.3	0	3	338	0.00	30.091 
14:45	17.7	17.7	17.7	58	5.5	0	2	338	0.00	30.089 
14:50	17.7	17.7	17.7	58	5.5	1	2	292	0.00	30.093 
14:55	17.5	17.5	17.5	57	4.9	1	3	315	0.00	30.094 
15:00	17.2	17.2	17.2	57	4.6	1	3	0	0.00	30.096 
15:05	17.0	17.0	17.0	57	4.4	1	4	270	0.00	30.099 
15:10	16.9	16.9	16.9	57	4.3	1	4	270	0.00	30.099 
15:15	17.0	17.0	17.0	57	4.4	1	3	338	0.00	30.100 
15:20	16.9	16.9	16.9	57	4.3	1	3	315	0.00	30.100 
15:25	17.0	17.0	17.0	56	4.0	1	3	315	0.00	30.101 
15:30	17.2	17.2	17.2	57	4.6	1	4	270	0.00	30.100 
15:35	17.2	17.2	17.2	57	4.6	1	3	315	0.00	30.102 
15:40	17.2	17.2	17.2	57	4.6	1	3	315	0.00	30.104 
15:45	17.0	17.0	17.0	57	4.4	2	5	270	0.00	30.107 
15:50	16.9	16.9	16.9	56	4.0	1	3	292	0.00	30.111 
15:55	16.9	16.9	16.9	58	4.7	1	3	248	0.00	30.113 
16:00	16.7	16.7	16.7	57	4.1	1	3	315	0.00	30.113 
16:05	16.5	16.5	16.5	58	4.3	2	4	338	0.00	30.113 
16:10	16.4	16.4	16.4	57	3.9	1	3	338	0.00	30.113 
16:15	16.2	16.2	16.2	57	3.7	1	3	338	0.00	30.113 
16:20	16.1	16.1	16.1	56	3.2	1	3	338	0.00	30.112 
16:25	15.9	15.9	15.9	57	3.4	0	1	338	0.00	30.112 
16:30	15.9	15.9	15.9	56	3.0	1	3	248	0.00	30.111 
16:35	15.7	15.7	15.7	55	2.4	1	4	292	0.00	30.111 
16:40	15.4	15.4	15.4	55	2.2	1	3	315	0.00	30.111 
16:45	15.4	15.4	15.4	55	2.2	1	3	338	0.00	30.113 
16:50	15.2	15.2	15.2	56	2.4	1	4	338	0.00	30.112 
16:55	15.2	15.2	15.2	56	2.4	1	3	270	0.00	30.112 
17:00	15.1	15.1	15.1	56	2.3	0	3	292	0.00	30.112 
17:05	14.9	14.9	14.9	57	2.5	0	3	292	0.00	30.111 
17:10	14.9	14.9	14.9	57	2.5	0	2	292	0.00	30.115 
17:15	14.8	14.8	14.8	57	2.4	0	2	315	0.00	30.116 
17:20	14.6	14.6	14.6	58	2.5	0	2	315	0.00	30.117 
17:25	14.6	14.6	14.6	58	2.5	0	2	315	0.00	30.118 
17:30	14.4	14.4	14.4	58	2.4	0	1	248	0.00	30.121 
17:35	14.1	14.1	14.1	59	2.4	0	2	248	0.00	30.122 
17:40	14.0	14.0	14.0	59	2.3	0	0	---	0.00	30.124 
17:45	13.5	13.5	13.5	60	2.2	0	0	---	0.00	30.123 
17:50	13.1	13.1	13.1	60	1.9	0	0	---	0.00	30.125 
17:55	12.6	12.6	12.6	61	1.7	0	0	---	0.00	30.128 
18:00	12.1	12.1	12.1	62	1.6	0	0	---	0.00	30.134 
18:05	11.7	11.7	11.7	63	1.6	0	0	---	0.00	30.132 
18:10	11.2	11.2	11.2	64	1.4	0	0	---	0.00	30.132 
18:15	10.7	10.7	10.7	64	1.0	0	0	---	0.00	30.129 
18:20	10.2	10.2	10.2	65	0.8	0	0	---	0.00	30.132 
18:25	9.7	9.7	9.7	66	0.7	0	0	---	0.00	30.136 
18:30	9.5	9.5	9.5	68	1.1	0	0	---	0.00	30.137 
18:35	9.3	9.3	9.3	69	1.2	0	0	---	0.00	30.137 
18:40	9.3	9.3	9.3	69	1.2	0	0	---	0.00	30.139 
18:45	9.2	9.2	9.2	69	1.1	0	0	---	0.00	30.139 
18:50	9.0	9.0	9.0	70	1.2	0	0	---	0.00	30.141 
18:55	9.0	9.0	9.0	70	1.2	0	0	---	0.00	30.145 
19:00	9.0	9.0	9.0	71	1.5	0	0	---	0.00	30.148 
19:05	9.0	9.0	9.0	71	1.5	0	0	---	0.00	30.151 
19:10	9.2	9.2	9.2	71	1.7	0	1	248	0.00	30.152 
19:15	9.3	9.3	9.3	72	2.1	0	1	248	0.00	30.153 
19:20	9.3	9.3	9.3	71	1.8	0	0	---	0.00	30.153 
19:25	9.2	9.2	9.2	71	1.7	0	0	---	0.00	30.153 
19:30	9.2	9.2	9.2	71	1.7	0	0	---	0.00	30.154 
19:35	9.2	9.2	9.2	70	1.4	0	1	248	0.00	30.154 
19:40	9.0	9.0	9.0	70	1.2	0	0	---	0.00	30.155 
19:45	8.8	8.8	8.8	69	0.7	0	0	---	0.00	30.154 
19:50	8.4	8.4	8.4	69	0.4	0	0	---	0.00	30.155 
19:55	8.3	8.3	8.3	69	0.3	0	0	---	0.00	30.156 
20:00	7.9	7.9	7.9	69	-0.1	0	0	---	0.00	30.158 
20:05	7.7	7.7	7.7	69	-0.3	0	0	---	0.00	30.155 
20:10	7.2	7.2	7.2	68	-1.1	0	0	---	0.00	30.155 
20:15	6.7	6.7	6.7	68	-1.6	0	0	---	0.00	30.156 
20:20	6.1	6.1	6.1	68	-2.2	0	0	---	0.00	30.157 
20:25	5.6	5.6	5.6	69	-2.3	0	0	---	0.00	30.156 
20:30	5.0	5.0	5.0	69	-2.9	0	0	---	0.00	30.156 
20:35	4.5	4.5	4.5	70	-3.1	0	0	---	0.00	30.156 
20:40	4.1	4.1	4.1	71	-3.2	0	0	---	0.00	30.157 
20:45	3.5	3.5	3.5	71	-3.8	0	0	---	0.00	30.156 
20:50	3.2	3.2	3.2	71	-4.0	0	0	---	0.00	30.155 
20:55	2.8	2.8	2.8	72	-4.1	0	0	---	0.00	30.155 
21:00	2.4	2.4	2.4	73	-4.2	0	0	---	0.00	30.154 
21:05	2.4	2.4	2.4	74	-4.0	0	0	---	0.00	30.156 
21:10	2.4	2.4	2.4	75	-3.7	0	0	---	0.00	30.156 
21:15	2.2	2.2	2.2	75	-3.9	0	0	---	0.00	30.157 
21:20	2.0	2.0	2.0	76	-3.8	0	0	---	0.00	30.158 
21:25	1.8	1.8	1.8	76	-4.0	0	0	---	0.00	30.157 
21:30	1.7	1.7	1.7	77	-3.8	0	0	---	0.00	30.158 
21:35	1.7	1.7	1.7	77	-3.8	0	0	---	0.00	30.157 
21:40	1.3	1.3	1.3	77	-4.2	0	0	---	0.00	30.156 
21:45	1.1	1.1	1.1	77	-4.4	0	0	---	0.00	30.156 
21:50	1.1	1.1	1.1	77	-4.4	0	0	---	0.00	30.156 
21:55	0.9	0.9	0.9	77	-4.6	0	0	---	0.00	30.156 
22:00	0.5	0.5	0.5	77	-5.0	0	0	---	0.00	30.157 
22:05	0.3	0.3	0.3	77	-5.2	0	0	---	0.00	30.156 
22:10	0.3	0.3	0.3	78	-4.9	0	0	---	0.00	30.156 
22:15	0.1	0.1	0.1	78	-5.1	0	0	---	0.00	30.155 
22:20	0.0	0.0	0.0	78	-5.2	0	0	---	0.00	30.156 
22:25	0.0	0.0	0.0	79	-4.9	0	0	---	0.00	30.156 
22:30	0.1	0.1	0.1	79	-4.8	0	0	---	0.00	30.157 
22:35	0.1	0.1	0.1	79	-4.8	0	0	---	0.00	30.157 
22:40	0.1	0.1	0.1	79	-4.8	0	0	---	0.00	30.157 
22:45	0.0	0.0	0.0	79	-4.9	0	0	---	0.00	30.156 
22:50	-0.2	-0.2	-0.2	79	-5.1	0	0	---	0.00	30.156 
22:55	0.0	0.0	0.0	80	-4.7	0	0	---	0.00	30.156 
23:00	0.1	0.1	0.1	80	-4.6	0	0	---	0.00	30.158 
23:05	0.3	0.3	0.3	80	-4.4	0	0	---	0.00	30.154 
23:10	0.5	0.5	0.5	80	-4.2	0	0	---	0.00	30.152 
23:15	0.5	0.5	0.5	80	-4.2	0	0	---	0.00	30.153 
23:20	0.7	0.7	0.7	81	-3.7	0	0	---	0.00	30.152 
23:25	0.9	0.9	0.9	81	-3.5	0	0	---	0.00	30.153 
23:30	1.8	1.8	1.8	82	-2.4	0	0	---	0.00	30.150 
23:35	3.0	3.0	3.0	83	-1.0	0	0	---	0.00	30.150 
23:40	4.3	4.3	4.3	84	0.6	0	2	248	0.00	30.148 
23:45	5.6	5.6	5.6	84	1.8	0	1	248	0.00	30.147 
23:50	6.5	6.5	6.5	84	2.7	0	1	248	0.00	30.146 
23:55	7.2	7.2	7.2	84	3.4	0	0	---	0.00	30.146 

CoCoRaHS
IN-AL-39
A2 Web Hosting
Creative Commons License
GoDaddy
search engine by freefind advanced

loaded 2018-11-16 00:52:39 • last modified 2010-11-18 10:43:29
Privacy PolicyDisclaimer
• wx.awcolley.com is powered by PmWiki v.2002016 •
• all content (unless otherwise noted) © 2018 A W Colley